sensor_id;sensor_type;location;lat;lon;timestamp;P1;durP1;ratioP1;P2;durP2;ratioP2
25868;SDS011;13688;53.154;18.136;2023-05-17T00:05:14;15.40;;;6.67;;
25868;SDS011;13688;53.154;18.136;2023-05-17T00:10:37;12.43;;;7.10;;
25868;SDS011;13688;53.154;18.136;2023-05-17T00:15:59;12.30;;;6.03;;
25868;SDS011;13688;53.154;18.136;2023-05-17T00:21:22;11.83;;;6.60;;
25868;SDS011;13688;53.154;18.136;2023-05-17T00:26:44;13.30;;;6.62;;
25868;SDS011;13688;53.154;18.136;2023-05-17T00:32:07;12.60;;;6.72;;
25868;SDS011;13688;53.154;18.136;2023-05-17T00:37:29;14.43;;;7.13;;
25868;SDS011;13688;53.154;18.136;2023-05-17T00:42:53;16.10;;;7.53;;
25868;SDS011;13688;53.154;18.136;2023-05-17T00:48:15;15.30;;;7.30;;
25868;SDS011;13688;53.154;18.136;2023-05-17T00:53:38;18.48;;;7.42;;
25868;SDS011;13688;53.154;18.136;2023-05-17T00:59:01;13.45;;;6.75;;
25868;SDS011;13688;53.154;18.136;2023-05-17T01:04:25;11.20;;;6.90;;
25868;SDS011;13688;53.154;18.136;2023-05-17T01:09:48;14.47;;;7.50;;
25868;SDS011;13688;53.154;18.136;2023-05-17T01:15:21;13.90;;;6.67;;
25868;SDS011;13688;53.154;18.136;2023-05-17T01:20:44;13.87;;;7.00;;
25868;SDS011;13688;53.154;18.136;2023-05-17T01:26:18;13.18;;;6.28;;
25868;SDS011;13688;53.154;18.136;2023-05-17T01:31:49;13.43;;;6.28;;
25868;SDS011;13688;53.154;18.136;2023-05-17T01:37:12;17.48;;;6.35;;
25868;SDS011;13688;53.154;18.136;2023-05-17T01:42:36;18.20;;;5.92;;
25868;SDS011;13688;53.154;18.136;2023-05-17T01:48:20;15.30;;;5.10;;
25868;SDS011;13688;53.154;18.136;2023-05-17T01:53:47;13.25;;;5.00;;
25868;SDS011;13688;53.154;18.136;2023-05-17T01:59:14;17.07;;;4.97;;
25868;SDS011;13688;53.154;18.136;2023-05-17T02:04:39;9.53;;;4.17;;
25868;SDS011;13688;53.154;18.136;2023-05-17T02:10:02;10.60;;;4.40;;
25868;SDS011;13688;53.154;18.136;2023-05-17T02:15:25;14.47;;;4.77;;
25868;SDS011;13688;53.154;18.136;2023-05-17T02:20:47;12.27;;;4.67;;
25868;SDS011;13688;53.154;18.136;2023-05-17T02:26:10;11.97;;;4.15;;
25868;SDS011;13688;53.154;18.136;2023-05-17T02:31:32;11.95;;;3.90;;
25868;SDS011;13688;53.154;18.136;2023-05-17T02:36:55;9.37;;;4.37;;
25868;SDS011;13688;53.154;18.136;2023-05-17T02:42:17;13.13;;;5.37;;
25868;SDS011;13688;53.154;18.136;2023-05-17T02:47:40;13.50;;;5.03;;
25868;SDS011;13688;53.154;18.136;2023-05-17T02:53:03;11.70;;;4.40;;
25868;SDS011;13688;53.154;18.136;2023-05-17T02:58:25;9.93;;;4.00;;
25868;SDS011;13688;53.154;18.136;2023-05-17T03:03:48;14.85;;;4.85;;
25868;SDS011;13688;53.154;18.136;2023-05-17T03:09:11;12.18;;;3.98;;
25868;SDS011;13688;53.154;18.136;2023-05-17T03:14:34;14.50;;;3.70;;
25868;SDS011;13688;53.154;18.136;2023-05-17T03:19:57;9.55;;;3.60;;
25868;SDS011;13688;53.154;18.136;2023-05-17T03:25:21;14.53;;;4.12;;
25868;SDS011;13688;53.154;18.136;2023-05-17T03:30:43;8.68;;;2.95;;
25868;SDS011;13688;53.154;18.136;2023-05-17T03:36:07;7.77;;;2.70;;
25868;SDS011;13688;53.154;18.136;2023-05-17T03:41:29;4.93;;;2.60;;
25868;SDS011;13688;53.154;18.136;2023-05-17T03:46:52;9.20;;;2.67;;
25868;SDS011;13688;53.154;18.136;2023-05-17T03:52:14;8.05;;;2.35;;
25868;SDS011;13688;53.154;18.136;2023-05-17T03:57:37;10.10;;;2.35;;
25868;SDS011;13688;53.154;18.136;2023-05-17T04:02:59;6.20;;;2.22;;
25868;SDS011;13688;53.154;18.136;2023-05-17T04:08:22;9.20;;;2.65;;
25868;SDS011;13688;53.154;18.136;2023-05-17T04:13:45;7.77;;;2.37;;
25868;SDS011;13688;53.154;18.136;2023-05-17T04:19:09;12.70;;;2.97;;
25868;SDS011;13688;53.154;18.136;2023-05-17T04:24:32;8.93;;;2.65;;
25868;SDS011;13688;53.154;18.136;2023-05-17T04:29:54;11.97;;;2.40;;
25868;SDS011;13688;53.154;18.136;2023-05-17T04:35:17;6.40;;;2.15;;
25868;SDS011;13688;53.154;18.136;2023-05-17T04:40:40;8.50;;;3.00;;
25868;SDS011;13688;53.154;18.136;2023-05-17T04:46:02;10.37;;;2.33;;
25868;SDS011;13688;53.154;18.136;2023-05-17T04:51:24;10.27;;;2.67;;
25868;SDS011;13688;53.154;18.136;2023-05-17T04:56:47;12.37;;;3.13;;
25868;SDS011;13688;53.154;18.136;2023-05-17T05:02:09;9.00;;;2.87;;
25868;SDS011;13688;53.154;18.136;2023-05-17T05:07:32;9.27;;;2.37;;
25868;SDS011;13688;53.154;18.136;2023-05-17T05:12:54;9.18;;;3.00;;
25868;SDS011;13688;53.154;18.136;2023-05-17T05:18:16;8.67;;;2.57;;
25868;SDS011;13688;53.154;18.136;2023-05-17T05:23:40;11.33;;;2.75;;
25868;SDS011;13688;53.154;18.136;2023-05-17T05:29:02;9.55;;;2.95;;
25868;SDS011;13688;53.154;18.136;2023-05-17T05:34:24;8.50;;;3.27;;
25868;SDS011;13688;53.154;18.136;2023-05-17T05:39:47;11.35;;;2.87;;
25868;SDS011;13688;53.154;18.136;2023-05-17T05:45:09;10.85;;;3.45;;
25868;SDS011;13688;53.154;18.136;2023-05-17T05:50:33;12.47;;;3.10;;
25868;SDS011;13688;53.154;18.136;2023-05-17T05:55:57;11.63;;;3.15;;
25868;SDS011;13688;53.154;18.136;2023-05-17T06:01:20;13.68;;;2.95;;
25868;SDS011;13688;53.154;18.136;2023-05-17T06:06:43;11.73;;;3.55;;
25868;SDS011;13688;53.154;18.136;2023-05-17T06:12:06;14.58;;;3.83;;
25868;SDS011;13688;53.154;18.136;2023-05-17T06:17:28;13.85;;;4.35;;
25868;SDS011;13688;53.154;18.136;2023-05-17T06:22:51;10.28;;;3.52;;
25868;SDS011;13688;53.154;18.136;2023-05-17T06:28:14;10.10;;;3.12;;
25868;SDS011;13688;53.154;18.136;2023-05-17T06:33:36;19.85;;;4.45;;
25868;SDS011;13688;53.154;18.136;2023-05-17T06:38:59;14.20;;;3.62;;
25868;SDS011;13688;53.154;18.136;2023-05-17T06:44:21;11.38;;;3.95;;
25868;SDS011;13688;53.154;18.136;2023-05-17T06:49:44;18.23;;;4.08;;
25868;SDS011;13688;53.154;18.136;2023-05-17T06:55:07;13.15;;;3.72;;
25868;SDS011;13688;53.154;18.136;2023-05-17T07:00:31;14.13;;;4.03;;
25868;SDS011;13688;53.154;18.136;2023-05-17T07:05:54;10.82;;;4.15;;
25868;SDS011;13688;53.154;18.136;2023-05-17T07:11:17;19.23;;;4.97;;
25868;SDS011;13688;53.154;18.136;2023-05-17T07:16:39;18.15;;;4.60;;
25868;SDS011;13688;53.154;18.136;2023-05-17T07:22:02;16.30;;;4.35;;
25868;SDS011;13688;53.154;18.136;2023-05-17T07:27:25;15.75;;;4.33;;
25868;SDS011;13688;53.154;18.136;2023-05-17T07:32:52;14.63;;;4.03;;
25868;SDS011;13688;53.154;18.136;2023-05-17T07:38:15;14.03;;;4.30;;
25868;SDS011;13688;53.154;18.136;2023-05-17T07:43:41;15.83;;;3.67;;
25868;SDS011;13688;53.154;18.136;2023-05-17T07:49:04;15.83;;;4.40;;
25868;SDS011;13688;53.154;18.136;2023-05-17T07:54:26;11.60;;;3.83;;
25868;SDS011;13688;53.154;18.136;2023-05-17T07:59:50;12.35;;;3.75;;
25868;SDS011;13688;53.154;18.136;2023-05-17T08:05:14;12.40;;;3.92;;
25868;SDS011;13688;53.154;18.136;2023-05-17T08:10:37;14.05;;;3.75;;
25868;SDS011;13688;53.154;18.136;2023-05-17T08:15:59;13.35;;;3.70;;
25868;SDS011;13688;53.154;18.136;2023-05-17T08:21:23;13.22;;;3.67;;
25868;SDS011;13688;53.154;18.136;2023-05-17T08:26:45;11.63;;;4.30;;
25868;SDS011;13688;53.154;18.136;2023-05-17T08:32:08;12.78;;;3.62;;
25868;SDS011;13688;53.154;18.136;2023-05-17T08:37:31;13.38;;;3.62;;
25868;SDS011;13688;53.154;18.136;2023-05-17T08:42:54;11.25;;;3.52;;
25868;SDS011;13688;53.154;18.136;2023-05-17T08:48:18;12.78;;;4.30;;
25868;SDS011;13688;53.154;18.136;2023-05-17T08:53:45;11.10;;;4.03;;
25868;SDS011;13688;53.154;18.136;2023-05-17T08:59:10;14.50;;;4.12;;
25868;SDS011;13688;53.154;18.136;2023-05-17T09:04:35;13.03;;;3.60;;
25868;SDS011;13688;53.154;18.136;2023-05-17T09:09:59;17.25;;;4.37;;
25868;SDS011;13688;53.154;18.136;2023-05-17T09:15:21;15.35;;;3.75;;
25868;SDS011;13688;53.154;18.136;2023-05-17T09:20:49;13.20;;;3.35;;
25868;SDS011;13688;53.154;18.136;2023-05-17T09:26:19;12.15;;;3.65;;
25868;SDS011;13688;53.154;18.136;2023-05-17T09:31:48;10.80;;;3.83;;
25868;SDS011;13688;53.154;18.136;2023-05-17T09:37:23;12.33;;;3.95;;
25868;SDS011;13688;53.154;18.136;2023-05-17T09:42:48;11.00;;;3.95;;
25868;SDS011;13688;53.154;18.136;2023-05-17T09:48:15;15.75;;;4.53;;
25868;SDS011;13688;53.154;18.136;2023-05-17T09:53:41;11.90;;;3.77;;
25868;SDS011;13688;53.154;18.136;2023-05-17T09:59:16;12.95;;;3.98;;
25868;SDS011;13688;53.154;18.136;2023-05-17T10:04:41;10.63;;;3.62;;
25868;SDS011;13688;53.154;18.136;2023-05-17T10:10:08;18.42;;;3.62;;
25868;SDS011;13688;53.154;18.136;2023-05-17T10:15:32;9.63;;;3.60;;
25868;SDS011;13688;53.154;18.136;2023-05-17T10:20:56;10.58;;;3.67;;
25868;SDS011;13688;53.154;18.136;2023-05-17T10:26:22;12.23;;;3.20;;
25868;SDS011;13688;53.154;18.136;2023-05-17T10:31:45;10.58;;;3.75;;
25868;SDS011;13688;53.154;18.136;2023-05-17T10:37:10;8.68;;;3.30;;
25868;SDS011;13688;53.154;18.136;2023-05-17T10:42:34;11.10;;;3.35;;
25868;SDS011;13688;53.154;18.136;2023-05-17T10:48:04;10.70;;;3.08;;
25868;SDS011;13688;53.154;18.136;2023-05-17T10:53:25;8.00;;;3.45;;
25868;SDS011;13688;53.154;18.136;2023-05-17T10:59:24;9.70;;;3.53;;
25868;SDS011;13688;53.154;18.136;2023-05-17T11:04:49;11.70;;;3.40;;
25868;SDS011;13688;53.154;18.136;2023-05-17T11:10:13;10.10;;;3.33;;
25868;SDS011;13688;53.154;18.136;2023-05-17T11:15:35;9.57;;;3.50;;
25868;SDS011;13688;53.154;18.136;2023-05-17T11:21:15;13.15;;;4.30;;
25868;SDS011;13688;53.154;18.136;2023-05-17T11:26:39;13.03;;;3.80;;
25868;SDS011;13688;53.154;18.136;2023-05-17T11:32:03;9.45;;;3.20;;
25868;SDS011;13688;53.154;18.136;2023-05-17T11:37:27;10.55;;;3.50;;
25868;SDS011;13688;53.154;18.136;2023-05-17T11:48:38;9.83;;;3.37;;
25868;SDS011;13688;53.154;18.136;2023-05-17T11:54:02;9.30;;;3.55;;
25868;SDS011;13688;53.154;18.136;2023-05-17T11:59:24;15.83;;;3.95;;
25868;SDS011;13688;53.154;18.136;2023-05-17T12:04:49;7.60;;;2.70;;
25868;SDS011;13688;53.154;18.136;2023-05-17T12:10:12;13.50;;;3.80;;
25868;SDS011;13688;53.154;18.136;2023-05-17T12:15:37;10.68;;;3.58;;
25868;SDS011;13688;53.154;18.136;2023-05-17T12:21:04;10.10;;;2.90;;
25868;SDS011;13688;53.154;18.136;2023-05-17T12:26:30;11.50;;;2.87;;
25868;SDS011;13688;53.154;18.136;2023-05-17T12:37:17;12.60;;;3.12;;
25868;SDS011;13688;53.154;18.136;2023-05-17T12:42:39;10.80;;;3.05;;
25868;SDS011;13688;53.154;18.136;2023-05-17T12:48:04;9.03;;;3.00;;
25868;SDS011;13688;53.154;18.136;2023-05-17T12:53:33;13.50;;;2.75;;
25868;SDS011;13688;53.154;18.136;2023-05-17T12:59:12;11.55;;;2.40;;
25868;SDS011;13688;53.154;18.136;2023-05-17T13:04:36;8.65;;;2.10;;
25868;SDS011;13688;53.154;18.136;2023-05-17T13:09:58;8.15;;;2.22;;
25868;SDS011;13688;53.154;18.136;2023-05-17T13:15:44;6.93;;;1.80;;
25868;SDS011;13688;53.154;18.136;2023-05-17T13:21:05;12.53;;;1.92;;
25868;SDS011;13688;53.154;18.136;2023-05-17T13:26:28;7.85;;;2.08;;
25868;SDS011;13688;53.154;18.136;2023-05-17T13:31:51;6.90;;;1.73;;
25868;SDS011;13688;53.154;18.136;2023-05-17T13:37:14;12.60;;;2.40;;
25868;SDS011;13688;53.154;18.136;2023-05-17T13:42:36;10.70;;;2.27;;
25868;SDS011;13688;53.154;18.136;2023-05-17T13:47:59;11.23;;;2.80;;
25868;SDS011;13688;53.154;18.136;2023-05-17T13:53:22;6.67;;;1.60;;
25868;SDS011;13688;53.154;18.136;2023-05-17T13:58:46;6.95;;;1.82;;
25868;SDS011;13688;53.154;18.136;2023-05-17T14:04:10;12.83;;;2.70;;
25868;SDS011;13688;53.154;18.136;2023-05-17T14:09:32;12.70;;;2.23;;
25868;SDS011;13688;53.154;18.136;2023-05-17T14:14:55;10.32;;;2.33;;
25868;SDS011;13688;53.154;18.136;2023-05-17T14:20:20;10.53;;;2.67;;
25868;SDS011;13688;53.154;18.136;2023-05-17T14:25:43;14.17;;;2.70;;
25868;SDS011;13688;53.154;18.136;2023-05-17T14:31:08;11.73;;;2.72;;
25868;SDS011;13688;53.154;18.136;2023-05-17T14:36:32;11.75;;;2.45;;
25868;SDS011;13688;53.154;18.136;2023-05-17T14:41:55;12.30;;;3.12;;
25868;SDS011;13688;53.154;18.136;2023-05-17T14:47:17;12.63;;;2.87;;
25868;SDS011;13688;53.154;18.136;2023-05-17T14:52:41;13.13;;;2.45;;
25868;SDS011;13688;53.154;18.136;2023-05-17T14:58:04;11.53;;;3.98;;
25868;SDS011;13688;53.154;18.136;2023-05-17T15:03:27;16.48;;;3.40;;
25868;SDS011;13688;53.154;18.136;2023-05-17T15:08:50;10.15;;;2.20;;
25868;SDS011;13688;53.154;18.136;2023-05-17T15:14:15;8.63;;;2.20;;
25868;SDS011;13688;53.154;18.136;2023-05-17T15:19:39;10.43;;;2.62;;
25868;SDS011;13688;53.154;18.136;2023-05-17T15:25:03;10.95;;;2.37;;
25868;SDS011;13688;53.154;18.136;2023-05-17T15:30:25;9.50;;;2.37;;
25868;SDS011;13688;53.154;18.136;2023-05-17T15:35:49;12.68;;;2.55;;
25868;SDS011;13688;53.154;18.136;2023-05-17T15:41:14;10.55;;;2.40;;
25868;SDS011;13688;53.154;18.136;2023-05-17T15:46:40;14.35;;;2.40;;
25868;SDS011;13688;53.154;18.136;2023-05-17T15:52:04;9.73;;;2.52;;
25868;SDS011;13688;53.154;18.136;2023-05-17T15:57:26;10.75;;;2.98;;
25868;SDS011;13688;53.154;18.136;2023-05-17T16:02:51;10.50;;;2.62;;
25868;SDS011;13688;53.154;18.136;2023-05-17T16:08:14;13.37;;;2.80;;
25868;SDS011;13688;53.154;18.136;2023-05-17T16:13:36;8.53;;;2.25;;
25868;SDS011;13688;53.154;18.136;2023-05-17T16:18:59;8.68;;;2.25;;
